Time;durP1;ratioP1;P1;durP2;ratioP2;P2;SDS_P1;SDS_P2;PMS_P1;PMS_P2;Temp;Humidity;BMP_temperature;BMP_pressure;BME280_temperature;BME280_humidity;BME280_pressure;Samples;Min_cycle;Max_cycle;Signal;HPM_P1;HPM_P2
2022/07/06 00:00:11;;;;;;;7.10;6.50;;;;;;;17.71;96.87;96655.49;1666973;85;20995;-83
2022/07/06 00:02:38;;;;;;;7.83;7.12;;;;;;;17.74;96.77;96662.96;1666441;85;21003;-83
2022/07/06 00:05:05;;;;;;;8.75;7.87;;;;;;;17.75;96.53;96654.05;1665384;86;21082;-82
2022/07/06 00:07:31;;;;;;;8.40;7.60;;;;;;;17.76;96.47;96653.54;1665106;85;21014;-83
2022/07/06 00:09:58;;;;;;;9.68;7.70;;;;;;;17.72;96.20;96645.27;1663339;86;21030;-83
2022/07/06 00:12:23;;;;;;;8.18;7.47;;;;;;;17.72;96.51;96647.89;1664488;86;20983;-83
2022/07/06 00:14:49;;;;;;;8.13;7.42;;;;;;;17.73;96.19;96648.19;1672027;85;20983;-83
2022/07/06 00:17:15;;;;;;;8.53;7.83;;;;;;;17.73;96.06;96646.07;1668816;85;20991;-82
2022/07/06 00:19:41;;;;;;;7.33;6.55;;;;;;;17.69;95.83;96645.20;1667124;85;20943;-85
2022/07/06 00:22:06;;;;;;;7.20;6.50;;;;;;;17.70;95.78;96647.31;1662509;86;21023;-84
2022/07/06 00:24:34;;;;;;;7.33;6.70;;;;;;;17.69;95.62;96643.09;1664065;85;21030;-84
2022/07/06 00:27:00;;;;;;;7.75;6.95;;;;;;;17.69;95.56;96644.40;1680383;85;21394;-85
2022/07/06 00:29:25;;;;;;;8.33;6.65;;;;;;;17.67;95.51;96651.16;1678562;84;20951;-84
2022/07/06 00:31:51;;;;;;;7.20;6.60;;;;;;;17.67;95.88;96650.36;1678852;84;21349;-84
2022/07/06 00:34:17;;;;;;;8.00;7.30;;;;;;;17.66;95.40;96644.81;1678861;84;21365;-84
2022/07/06 00:36:43;;;;;;;7.83;7.22;;;;;;;17.57;95.51;96654.00;1678996;85;21089;-84
2022/07/06 00:39:08;;;;;;;9.23;8.35;;;;;;;17.56;95.74;96647.14;1677091;84;21049;-84
2022/07/06 00:41:34;;;;;;;8.65;7.92;;;;;;;17.54;95.72;96650.50;1677580;84;21567;-84
2022/07/06 00:44:00;;;;;;;8.30;7.20;;;;;;;17.52;95.89;96645.98;1677304;85;21122;-83
2022/07/06 00:46:30;;;;;;;8.78;7.85;;;;;;;17.52;95.75;96644.66;1682967;84;21035;-83
2022/07/06 00:48:55;;;;;;;8.88;8.08;;;;;;;17.49;95.60;96647.73;1671613;84;20948;-82
2022/07/06 00:51:24;;;;;;;8.58;7.78;;;;;;;17.38;95.59;96648.73;1673948;85;21486;-83
2022/07/06 00:53:49;;;;;;;7.12;6.42;;;;;;;17.40;96.02;96648.00;1661354;83;21298;-83
2022/07/06 00:56:15;;;;;;;7.40;6.70;;;;;;;17.38;95.87;96650.56;1682066;85;20986;-83
2022/07/06 00:58:41;;;;;;;7.30;6.65;;;;;;;17.31;96.01;96648.02;1671107;84;21035;-83
2022/07/06 01:01:07;;;;;;;7.25;6.55;;;;;;;17.28;96.06;96655.53;1671177;84;20988;-82
2022/07/06 01:03:32;;;;;;;7.08;6.47;;;;;;;17.27;96.31;96652.61;1671656;84;20991;-83
2022/07/06 01:05:58;;;;;;;6.33;5.75;;;;;;;17.24;96.34;96652.52;1671536;86;21030;-83
2022/07/06 01:08:24;;;;;;;6.90;6.22;;;;;;;17.22;96.21;96655.87;1671493;86;21039;-83
2022/07/06 01:10:51;;;;;;;5.42;4.92;;;;;;;17.19;96.42;96655.50;1671258;86;20955;-85
2022/07/06 01:13:16;;;;;;;4.28;3.95;;;;;;;17.15;96.12;96656.96;1676830;84;20978;-85
2022/07/06 01:15:42;;;;;;;3.70;3.40;;;;;;;17.10;95.64;96660.24;1678968;84;21010;-84
2022/07/06 01:18:11;;;;;;;3.17;2.98;;;;;;;17.11;95.74;96657.91;1671363;84;21012;-84
2022/07/06 01:20:36;;;;;;;4.55;3.27;;;;;;;17.10;95.56;96662.87;1679360;84;21428;-85
2022/07/06 01:23:02;;;;;;;3.00;2.77;;;;;;;17.11;95.33;96664.47;1675129;84;20999;-84
2022/07/06 01:25:29;;;;;;;3.95;3.65;;;;;;;17.07;94.91;96663.27;1679963;83;20959;-85
2022/07/06 01:27:55;;;;;;;3.35;3.15;;;;;;;17.00;95.02;96663.34;1675971;84;21015;-85
2022/07/06 01:30:20;;;;;;;3.58;3.30;;;;;;;17.02;95.17;96668.38;1668166;85;21055;-84
2022/07/06 01:32:46;;;;;;;3.72;3.30;;;;;;;16.97;95.08;96672.16;1678499;85;21114;-85
2022/07/06 01:35:13;;;;;;;3.30;3.00;;;;;;;16.97;95.08;96672.16;1666950;86;20931;-85
2022/07/06 01:37:39;;;;;;;3.90;3.60;;;;;;;16.86;94.86;96675.47;1675369;85;21433;-84
2022/07/06 01:40:07;;;;;;;3.60;3.30;;;;;;;16.82;95.09;96671.67;1671054;85;20981;-85
2022/07/06 01:42:33;;;;;;;3.33;3.02;;;;;;;16.84;95.65;96672.27;1665729;85;21270;-85
2022/07/06 01:44:59;;;;;;;3.50;3.20;;;;;;;16.87;95.65;96672.63;1664927;86;21013;-84
2022/07/06 01:47:26;;;;;;;3.37;2.75;;;;;;;16.92;95.76;96683.80;1649732;86;21884;-85
2022/07/06 01:49:52;;;;;;;3.62;3.33;;;;;;;16.92;95.69;96674.12;1665387;85;20952;-84
2022/07/06 01:52:17;;;;;;;3.80;3.50;;;;;;;16.95;96.16;96680.25;1670127;85;21024;-85
2022/07/06 01:54:43;;;;;;;11.38;10.28;;;;;;;17.01;96.02;96686.45;1678353;85;21041;-84
2022/07/06 01:57:09;;;;;;;15.60;14.00;;;;;;;16.99;96.09;96687.19;1671343;85;21046;-84
2022/07/06 01:59:35;;;;;;;21.30;18.57;;;;;;;16.93;96.38;96678.36;1674170;85;21037;-84
2022/07/06 02:02:01;;;;;;;22.35;18.85;;;;;;;16.95;96.81;96678.14;1680025;85;20981;-85
2022/07/06 02:04:26;;;;;;;22.52;19.17;;;;;;;16.94;97.06;96684.41;1666626;85;21050;-84
2022/07/06 02:06:52;;;;;;;21.40;18.80;;;;;;;16.95;97.31;96686.81;1668549;85;21401;-84
2022/07/06 02:09:18;;;;;;;24.45;20.60;;;;;;;16.95;97.18;96680.25;1680760;85;21022;-84
2022/07/06 02:11:44;;;;;;;25.95;23.15;;;;;;;16.96;97.50;96680.55;1666572;86;21051;-84
2022/07/06 02:14:10;;;;;;;18.27;16.35;;;;;;;16.99;97.42;96677.48;1679191;85;21074;-84
2022/07/06 02:16:35;;;;;;;20.75;18.45;;;;;;;16.99;97.44;96675.38;1673317;85;21002;-84
2022/07/06 02:19:01;;;;;;;23.95;20.12;;;;;;;16.98;97.45;96679.02;1652430;85;21433;-84
2022/07/06 02:21:27;;;;;;;24.18;21.62;;;;;;;16.98;97.53;96677.70;1665350;85;20959;-84
2022/07/06 02:23:54;;;;;;;27.98;24.10;;;;;;;16.88;97.56;96672.13;1676781;85;21018;-84
2022/07/06 02:26:19;;;;;;;27.00;23.65;;;;;;;16.79;97.68;96667.16;1666380;85;20969;-83
2022/07/06 02:28:47;;;;;;;27.50;24.45;;;;;;;16.80;98.29;96670.58;1651954;85;21375;-83
2022/07/06 02:31:13;;;;;;;28.50;23.80;;;;;;;16.85;98.60;96667.31;1674608;84;21016;-85
2022/07/06 02:33:40;;;;;;;26.20;22.80;;;;;;;16.80;98.10;96671.38;1683321;84;20968;-84
2022/07/06 02:36:07;;;;;;;30.15;25.77;;;;;;;16.82;98.48;96672.48;1683684;84;21314;-83
2022/07/06 02:38:33;;;;;;;31.30;23.80;;;;;;;16.89;98.60;96676.35;1684928;85;21123;-83
2022/07/06 02:40:59;;;;;;;24.67;22.07;;;;;;;16.92;98.47;96678.55;1680498;84;21099;-84
2022/07/06 02:43:24;;;;;;;23.75;20.68;;;;;;;16.93;98.39;96681.49;1652025;84;21050;-84
2022/07/06 02:45:50;;;;;;;24.05;21.48;;;;;;;16.96;98.25;96681.05;1676723;84;21412;-85
2022/07/06 02:48:16;;;;;;;25.25;22.13;;;;;;;17.01;98.51;96686.45;1658905;84;20993;-84
2022/07/06 02:50:41;;;;;;;25.30;21.93;;;;;;;17.05;98.31;96681.88;1684131;84;20950;-84
2022/07/06 02:53:07;;;;;;;24.10;20.50;;;;;;;17.06;98.07;96687.92;1683510;84;21422;-84
2022/07/06 02:55:33;;;;;;;27.62;21.90;;;;;;;17.08;97.97;96685.88;1683470;85;21015;-84
2022/07/06 02:57:59;;;;;;;25.88;23.18;;;;;;;17.08;97.97;96684.09;1683443;84;20982;-84
2022/07/06 03:00:24;;;;;;;24.60;22.00;;;;;;;17.13;98.02;96682.63;1670572;85;21063;-84
2022/07/06 03:02:50;;;;;;;24.77;22.20;;;;;;;17.15;98.05;96684.02;1684167;84;21343;-84
2022/07/06 03:05:16;;;;;;;24.10;21.52;;;;;;;17.17;97.92;96680.66;1683557;84;21096;-85
2022/07/06 03:07:42;;;;;;;24.30;21.80;;;;;;;17.18;97.66;96674.39;1683843;84;21352;-82
2022/07/06 03:10:08;;;;;;;23.27;20.77;;;;;;;17.19;97.30;96693.58;1684334;84;20990;-83
2022/07/06 03:12:34;;;;;;;25.02;22.32;;;;;;;17.19;97.25;96698.32;1664389;86;21018;-83
2022/07/06 03:15:00;;;;;;;25.17;21.97;;;;;;;17.21;97.18;96703.35;1664605;84;21321;-83
2022/07/06 03:17:26;;;;;;;23.42;21.02;;;;;;;17.21;97.09;96712.55;1685874;84;20970;-83
2022/07/06 03:19:52;;;;;;;25.30;21.30;;;;;;;17.22;96.94;96711.52;1684228;84;20954;-83
2022/07/06 03:22:18;;;;;;;21.15;18.95;;;;;;;17.16;96.87;96713.70;1684802;84;20988;-83
2022/07/06 03:24:44;;;;;;;20.97;18.67;;;;;;;17.17;96.65;96711.38;1683463;84;21035;-83
2022/07/06 03:27:09;;;;;;;24.10;21.50;;;;;;;17.09;96.23;96706.70;1651100;85;21487;-83
2022/07/06 03:29:35;;;;;;;26.73;23.62;;;;;;;16.99;96.40;96706.88;1663767;86;21055;-83
2022/07/06 03:32:01;;;;;;;26.77;22.87;;;;;;;16.97;96.90;96707.60;1657229;86;20994;-83
2022/07/06 03:34:28;;;;;;;23.55;21.00;;;;;;;16.97;97.15;96706.28;1656541;86;21394;-83
2022/07/06 03:36:54;;;;;;;26.25;23.45;;;;;;;16.94;96.82;96710.15;1652562;86;20986;-84
2022/07/06 03:39:20;;;;;;;25.00;22.22;;;;;;;16.89;96.67;96715.21;1654348;86;21067;-85
2022/07/06 03:41:45;;;;;;;23.30;20.25;;;;;;;16.92;97.01;96713.98;1666818;85;20979;-85
2022/07/06 03:44:11;;;;;;;27.60;24.75;;;;;;;16.92;96.64;96711.35;1668226;85;20970;-84
2022/07/06 03:46:37;;;;;;;26.02;22.35;;;;;;;16.91;97.08;96719.73;1661744;85;20940;-84
2022/07/06 03:49:02;;;;;;;24.98;22.32;;;;;;;16.99;97.38;96716.06;1656801;86;20939;-84
2022/07/06 03:51:28;;;;;;;22.67;20.27;;;;;;;17.02;97.15;96719.56;1655445;85;21027;-84
2022/07/06 03:53:54;;;;;;;21.80;19.60;;;;;;;17.04;96.74;96720.16;1656865;86;21339;-84
2022/07/06 03:56:29;;;;;;;24.10;21.55;;;;;;;17.00;96.42;96715.84;1656866;86;20979;-84
2022/07/06 03:58:57;;;;;;;25.27;22.58;;;;;;;17.02;97.01;96714.31;1656901;86;22080;-85
2022/07/06 04:01:23;;;;;;;22.82;20.52;;;;;;;17.04;97.26;96707.83;1660458;86;21437;-84
2022/07/06 04:03:48;;;;;;;24.10;21.00;;;;;;;17.11;97.50;96706.48;1658460;86;21136;-84
2022/07/06 04:06:15;;;;;;;20.82;18.73;;;;;;;17.16;97.15;96711.08;1656472;86;21054;-84
2022/07/06 04:08:41;;;;;;;21.82;19.57;;;;;;;17.18;97.03;96716.41;1656835;87;21099;-84
2022/07/06 04:11:06;;;;;;;20.57;18.42;;;;;;;17.18;96.77;96714.29;1656827;86;21040;-84
2022/07/06 04:13:32;;;;;;;22.60;19.87;;;;;;;17.21;96.56;96719.11;1656856;86;21027;-84
2022/07/06 04:15:58;;;;;;;23.90;21.02;;;;;;;17.22;96.93;96711.02;1656719;86;21326;-84
2022/07/06 04:18:24;;;;;;;24.25;21.65;;;;;;;17.28;96.66;96715.42;1656893;86;21526;-84
2022/07/06 04:20:49;;;;;;;22.70;20.35;;;;;;;17.28;96.33;96721.98;1656812;86;20960;-84
2022/07/06 04:23:15;;;;;;;23.18;20.62;;;;;;;17.28;96.63;96723.81;1656104;86;20996;-84
2022/07/06 04:25:41;;;;;;;24.32;20.52;;;;;;;17.33;96.52;96723.96;1623253;88;21006;-84
2022/07/06 04:28:06;;;;;;;23.35;20.95;;;;;;;17.35;96.44;96717.47;1663994;84;21056;-84
2022/07/06 04:30:32;;;;;;;22.55;20.25;;;;;;;17.36;96.16;96721.70;1669863;85;20982;-84
2022/07/06 04:32:58;;;;;;;26.50;23.02;;;;;;;17.36;95.96;96728.27;1669311;84;21026;-82
2022/07/06 04:35:25;;;;;;;26.33;23.62;;;;;;;17.36;96.12;96741.91;1671210;86;21123;-82
2022/07/06 04:37:51;;;;;;;27.00;24.40;;;;;;;17.39;96.12;96740.96;1680384;84;21050;-83
2022/07/06 04:40:17;;;;;;;30.45;27.10;;;;;;;17.41;96.19;96749.97;1668173;85;21066;-83
2022/07/06 04:42:43;;;;;;;32.50;27.95;;;;;;;17.38;95.76;96745.12;1671306;84;21011;-83
2022/07/06 04:45:10;;;;;;;29.23;26.02;;;;;;;17.38;96.13;96743.80;1671317;84;20991;-83
2022/07/06 04:47:35;;;;;;;26.90;24.00;;;;;;;17.38;96.19;96748.55;1668648;84;21080;-82
2022/07/06 04:50:02;;;;;;;27.17;24.32;;;;;;;17.42;96.36;96746.32;1647546;84;21585;-83
2022/07/06 04:52:28;;;;;;;31.68;27.52;;;;;;;17.32;95.67;96750.73;1671434;86;21058;-83
2022/07/06 04:54:56;;;;;;;31.57;28.00;;;;;;;17.26;95.84;96751.60;1671290;85;21018;-83
2022/07/06 04:57:22;;;;;;;25.82;23.07;;;;;;;17.22;95.68;96754.85;1680795;84;21018;-83
2022/07/06 04:59:48;;;;;;;29.25;26.12;;;;;;;17.20;95.70;96749.02;1673351;84;20980;-83
2022/07/06 05:02:14;;;;;;;28.00;25.00;;;;;;;17.09;95.54;96754.47;1669737;84;21049;-84
2022/07/06 05:04:40;;;;;;;27.52;24.77;;;;;;;17.08;95.94;96751.52;1669803;84;20935;-85
2022/07/06 05:07:05;;;;;;;30.70;27.50;;;;;;;17.03;95.48;96746.11;1671451;84;20987;-83
2022/07/06 05:09:31;;;;;;;33.42;26.07;;;;;;;16.95;95.55;96755.58;1671060;84;21018;-83
2022/07/06 05:11:57;;;;;;;30.27;27.05;;;;;;;16.92;95.94;96750.24;1671290;84;21003;-83
2022/07/06 05:14:22;;;;;;;31.20;26.45;;;;;;;16.84;95.96;96757.05;1679276;84;21772;-83
2022/07/06 05:16:48;;;;;;;30.08;26.42;;;;;;;16.84;96.34;96759.67;1673711;84;20983;-82
2022/07/06 05:19:14;;;;;;;29.60;26.50;;;;;;;16.79;96.11;96756.38;1673375;84;21096;-82
2022/07/06 05:21:40;;;;;;;28.12;24.52;;;;;;;16.80;96.31;96757.98;1672812;85;21007;-83
2022/07/06 05:24:06;;;;;;;29.18;25.95;;;;;;;16.84;96.72;96753.11;1671142;84;21022;-83
2022/07/06 05:26:32;;;;;;;27.65;24.75;;;;;;;16.85;96.23;96761.28;1651875;86;21033;-83
2022/07/06 05:28:58;;;;;;;29.02;26.00;;;;;;;16.79;96.30;96755.06;1680908;84;20970;-83
2022/07/06 05:31:24;;;;;;;28.52;25.12;;;;;;;16.85;96.45;96761.28;1673352;84;20987;-84
2022/07/06 05:33:49;;;;;;;26.70;23.83;;;;;;;16.86;96.21;96760.77;1680480;83;20974;-83
2022/07/06 05:36:16;;;;;;;29.27;24.65;;;;;;;16.91;96.58;96760.42;1681813;84;20987;-82
2022/07/06 05:38:42;;;;;;;27.73;24.87;;;;;;;16.92;96.36;96765.16;1688445;83;21019;-83
2022/07/06 05:41:08;;;;;;;29.02;25.92;;;;;;;16.96;96.33;96767.68;1688660;83;20995;-83
2022/07/06 05:43:37;;;;;;;30.92;27.73;;;;;;;17.03;96.46;96769.23;1678418;84;21002;-83
2022/07/06 05:46:03;;;;;;;29.00;26.02;;;;;;;17.01;95.88;96774.40;1678800;84;20991;-83
2022/07/06 05:51:14;;;;;;;30.52;25.05;;;;;;;16.95;95.89;96767.39;1697831;83;21010;-83
2022/07/06 05:53:39;;;;;;;27.70;24.85;;;;;;;17.02;96.30;96765.50;1692561;83;21481;-83
2022/07/06 05:56:05;;;;;;;27.27;24.57;;;;;;;17.06;95.86;96766.17;1694365;83;21049;-82
2022/07/06 05:58:31;;;;;;;26.65;23.83;;;;;;;17.10;96.13;96766.58;1673264;84;21023;-83
2022/07/06 06:00:56;;;;;;;25.82;23.20;;;;;;;17.12;95.54;96767.16;1673604;84;21070;-83
2022/07/06 06:03:22;;;;;;;27.52;24.63;;;;;;;17.16;95.29;96764.40;1676354;84;22210;-83
2022/07/06 06:05:48;;;;;;;28.85;25.92;;;;;;;17.20;95.81;96762.94;1675778;84;20947;-83
2022/07/06 06:08:14;;;;;;;34.95;31.30;;;;;;;17.23;95.40;96757.77;1696205;84;21039;-83
2022/07/06 06:10:39;;;;;;;31.42;28.23;;;;;;;17.27;95.66;96766.85;1696480;83;21041;-85
2022/07/06 06:13:06;;;;;;;25.88;23.20;;;;;;;17.30;95.81;96770.36;1703206;83;21036;-85
2022/07/06 06:15:32;;;;;;;26.70;23.00;;;;;;;17.35;95.29;96769.20;1699053;83;20971;-84
2022/07/06 06:17:57;;;;;;;23.00;20.72;;;;;;;17.38;94.88;96775.33;1700685;83;21037;-85
2022/07/06 06:20:23;;;;;;;23.47;21.15;;;;;;;17.40;94.88;96781.97;1694465;83;21012;-83
2022/07/06 06:22:52;;;;;;;23.12;20.85;;;;;;;17.50;95.14;96776.75;1696856;83;20945;-84
2022/07/06 06:25:28;;;;;;;23.45;21.15;;;;;;;17.58;94.65;96789.63;1697872;83;20977;-83
2022/07/06 06:27:54;;;;;;;23.15;21.00;;;;;;;17.61;94.57;96785.25;1692713;84;21285;-82
2022/07/06 06:30:20;;;;;;;25.40;22.65;;;;;;;17.67;94.61;96785.69;1668000;84;21038;-83
2022/07/06 06:32:45;;;;;;;25.72;23.05;;;;;;;17.72;94.07;96785.87;1672554;84;21054;-83
2022/07/06 06:35:11;;;;;;;26.55;23.83;;;;;;;17.76;93.71;96787.58;1672206;84;21403;-82
2022/07/06 06:37:37;;;;;;;23.70;21.30;;;;;;;17.80;94.18;96794.00;1683180;84;20997;-83
2022/07/06 06:40:04;;;;;;;22.87;20.52;;;;;;;17.81;92.72;96799.55;1672377;84;21049;-83
2022/07/06 06:42:30;;;;;;;23.10;20.60;;;;;;;17.80;92.85;96801.38;1687692;84;20970;-83
2022/07/06 06:44:56;;;;;;;23.15;20.85;;;;;;;17.80;92.73;96807.95;1666655;85;21001;-82
2022/07/06 06:47:21;;;;;;;23.87;21.48;;;;;;;17.79;92.91;96807.66;1671270;84;21321;-83
2022/07/06 06:49:47;;;;;;;22.80;20.43;;;;;;;17.86;93.41;96813.64;1683298;84;21415;-82
2022/07/06 06:52:13;;;;;;;22.58;20.27;;;;;;;17.90;92.97;96810.09;1679442;85;20966;-82
2022/07/06 06:54:39;;;;;;;22.35;20.17;;;;;;;17.91;92.48;96815.64;1673318;85;21372;-82
2022/07/06 06:57:05;;;;;;;22.15;19.55;;;;;;;17.89;92.32;96822.41;1686197;84;21061;-82
2022/07/06 06:59:30;;;;;;;19.37;17.57;;;;;;;17.88;92.59;96815.53;1656636;84;21018;-82
2022/07/06 07:01:56;;;;;;;20.08;18.05;;;;;;;17.90;91.67;96819.29;1674855;84;20986;-82
2022/07/06 07:04:23;;;;;;;22.32;20.02;;;;;;;17.86;91.23;96823.34;1676964;84;20977;-82
2022/07/06 07:06:48;;;;;;;21.82;19.70;;;;;;;17.88;91.78;96819.99;1664230;84;21097;-83
2022/07/06 07:09:14;;;;;;;23.67;20.70;;;;;;;17.83;90.96;96818.53;1676902;84;21108;-82
2022/07/06 07:11:40;;;;;;;25.23;20.70;;;;;;;17.79;91.82;96823.42;1677094;84;21030;-82
2022/07/06 07:14:05;;;;;;;20.50;18.60;;;;;;;17.79;91.28;96819.99;1674435;84;21001;-83
2022/07/06 07:16:31;;;;;;;21.20;19.00;;;;;;;17.74;92.11;96816.70;1655335;84;20953;-83
2022/07/06 07:18:57;;;;;;;21.50;19.40;;;;;;;17.72;92.39;96815.28;1676697;84;21361;-83
2022/07/06 07:21:23;;;;;;;22.87;20.50;;;;;;;17.62;91.74;96818.39;1669781;84;20989;-83
2022/07/06 07:23:50;;;;;;;22.17;19.37;;;;;;;17.49;91.79;96826.38;1672308;84;20954;-83
2022/07/06 07:26:16;;;;;;;23.77;20.10;;;;;;;17.43;92.20;96834.61;1672378;85;21348;-86
2022/07/06 07:28:42;;;;;;;23.45;21.05;;;;;;;17.35;92.55;96834.86;1678885;83;21033;-84
2022/07/06 07:31:08;;;;;;;22.45;20.02;;;;;;;17.27;92.65;96843.02;1672389;84;20990;-82
2022/07/06 07:33:34;;;;;;;21.57;19.37;;;;;;;17.18;92.62;96841.13;1677416;84;21388;-84
2022/07/06 07:35:59;;;;;;;22.40;19.98;;;;;;;17.14;93.04;96847.03;1675522;84;21002;-83
2022/07/06 07:38:25;;;;;;;23.07;20.57;;;;;;;17.13;93.37;96850.16;1676735;84;20962;-83
2022/07/06 07:40:54;;;;;;;23.27;21.15;;;;;;;17.14;93.73;96850.45;1689993;84;20993;-81
2022/07/06 07:43:19;;;;;;;23.07;20.57;;;;;;;17.17;93.90;96851.85;1682446;84;21100;-83
2022/07/06 07:45:46;;;;;;;24.07;21.80;;;;;;;17.13;92.78;96859.86;1674036;85;21102;-82
2022/07/06 07:48:11;;;;;;;24.90;22.20;;;;;;;17.09;93.32;96863.42;1675710;84;21301;-83
2022/07/06 07:50:37;;;;;;;23.92;21.50;;;;;;;17.14;93.66;96854.40;1662098;85;21076;-83
2022/07/06 07:53:03;;;;;;;24.15;21.75;;;;;;;17.19;93.70;96858.50;1661435;86;21026;-83
2022/07/06 07:55:28;;;;;;;20.88;18.87;;;;;;;17.20;93.02;96861.42;1677924;84;21423;-83
2022/07/06 07:57:54;;;;;;;21.35;19.25;;;;;;;17.22;93.14;96862.01;1680983;84;21108;-83
2022/07/06 08:00:21;;;;;;;18.45;16.80;;;;;;;17.17;93.11;96863.67;1672894;84;21061;-83
2022/07/06 08:02:48;;;;;;;14.78;13.38;;;;;;;17.12;92.44;96877.44;1671708;85;21041;-83
2022/07/06 08:05:15;;;;;;;11.33;10.13;;;;;;;17.01;91.54;96885.46;1692154;84;21039;-85
2022/07/06 08:07:45;;;;;;;12.80;10.60;;;;;;;16.80;89.85;96897.07;1671409;85;21027;-85
2022/07/06 08:10:11;;;;;;;11.05;10.05;;;;;;;16.64;90.12;96900.13;1667218;86;21370;-85
2022/07/06 08:12:37;;;;;;;10.48;9.48;;;;;;;16.54;90.73;96903.67;1676162;84;21036;-84
2022/07/06 08:15:04;;;;;;;11.43;8.58;;;;;;;16.42;90.12;96904.00;1668167;84;20939;-85
2022/07/06 08:17:30;;;;;;;12.28;9.50;;;;;;;16.26;90.53;96902.62;1660709;85;21001;-84
2022/07/06 08:19:56;;;;;;;10.48;9.43;;;;;;;16.24;91.64;96907.27;1635649;86;20968;-85
2022/07/06 08:22:22;;;;;;;11.40;9.98;;;;;;;16.32;92.55;96905.76;1647264;85;20950;-83
2022/07/06 08:24:48;;;;;;;10.70;9.80;;;;;;;16.39;92.80;96914.41;1672455;85;21063;-83
2022/07/06 08:27:14;;;;;;;11.70;10.50;;;;;;;16.48;92.94;96907.94;1639737;85;20994;-83
2022/07/06 08:29:42;;;;;;;13.32;10.72;;;;;;;16.57;93.09;96912.44;1658566;85;21418;-84
2022/07/06 08:32:07;;;;;;;12.43;11.18;;;;;;;16.60;93.12;96905.50;1656397;85;20984;-86
2022/07/06 08:34:33;;;;;;;12.28;11.28;;;;;;;16.67;92.72;96907.61;1656372;85;21008;-85
2022/07/06 08:36:59;;;;;;;12.70;11.45;;;;;;;16.77;91.68;96918.48;1638416;85;21002;-84
2022/07/06 08:39:24;;;;;;;14.05;12.68;;;;;;;16.84;91.54;96911.89;1648973;86;21022;-83
2022/07/06 08:41:50;;;;;;;13.35;11.97;;;;;;;16.92;92.85;96912.98;1655908;85;21021;-84
2022/07/06 08:44:16;;;;;;;11.80;10.70;;;;;;;17.04;92.09;96906.55;1643634;86;21512;-86
2022/07/06 08:46:42;;;;;;;10.72;9.60;;;;;;;17.19;92.61;96909.70;1672119;84;20978;-86
2022/07/06 08:49:08;;;;;;;9.38;8.38;;;;;;;17.34;91.44;96910.73;1674707;84;20938;-86
2022/07/06 08:51:37;;;;;;;9.35;8.43;;;;;;;17.42;90.79;96907.06;1672340;84;20994;-84
2022/07/06 08:54:05;;;;;;;8.60;7.72;;;;;;;17.44;90.13;96915.54;1648343;84;21056;-84
2022/07/06 08:56:31;;;;;;;8.58;7.28;;;;;;;17.37;88.57;96915.05;1661701;86;21033;-83
2022/07/06 08:58:56;;;;;;;8.48;6.87;;;;;;;17.27;89.21;96914.72;1652056;86;20963;-85
2022/07/06 09:01:22;;;;;;;9.18;6.33;;;;;;;17.28;90.09;96912.39;1674386;85;21044;-84
2022/07/06 09:03:49;;;;;;;8.83;7.05;;;;;;;17.29;89.15;96915.83;1668215;84;20991;-83
2022/07/06 09:06:25;;;;;;;9.55;7.05;;;;;;;17.29;89.40;96906.13;1634672;86;21034;-83
2022/07/06 09:08:55;;;;;;;9.00;6.75;;;;;;;17.33;90.35;96904.67;1631153;86;21049;-83
2022/07/06 09:11:25;;;;;;;7.17;6.50;;;;;;;17.36;89.51;96910.81;1628287;88;21118;-83
2022/07/06 09:13:51;;;;;;;9.18;6.47;;;;;;;17.37;88.97;96904.55;1614669;86;22097;-83
2022/07/06 09:16:17;;;;;;;5.62;5.15;;;;;;;17.35;88.61;96907.09;1627062;88;21008;-83
2022/07/06 09:18:46;;;;;;;7.75;6.85;;;;;;;17.30;87.61;96903.80;1631131;88;21002;-83
2022/07/06 09:21:12;;;;;;;6.62;5.78;;;;;;;17.32;87.89;96908.83;1648991;86;21012;-83
2022/07/06 09:23:37;;;;;;;7.85;6.25;;;;;;;17.31;87.72;96906.71;1618543;88;20994;-82
2022/07/06 09:26:06;;;;;;;7.05;5.85;;;;;;;17.35;87.98;96900.02;1647919;85;21388;-84
2022/07/06 09:28:44;;;;;;;7.42;5.95;;;;;;;17.46;89.75;96897.73;1644454;85;21048;-83
2022/07/06 09:31:11;;;;;;;6.67;6.05;;;;;;;17.58;87.71;96894.73;1644695;86;21010;-84
2022/07/06 09:33:37;;;;;;;7.22;5.55;;;;;;;17.74;89.08;96887.67;1629764;86;20978;-83
2022/07/06 09:36:05;;;;;;;7.22;6.62;;;;;;;17.96;89.95;96881.52;1641281;86;21989;-84
2022/07/06 09:38:31;;;;;;;6.37;5.55;;;;;;;18.16;89.04;96876.87;1662944;85;21038;-83
2022/07/06 09:40:57;;;;;;;7.30;5.28;;;;;;;18.36;88.85;96867.97;1661174;85;21440;-83
2022/07/06 09:43:24;;;;;;;6.50;5.83;;;;;;;18.66;88.24;96865.44;1660791;85;20964;-86
2022/07/06 09:45:54;;;;;;;5.58;5.08;;;;;;;18.87;86.70;96869.75;1642886;86;21265;-86
2022/07/06 09:48:25;;;;;;;5.80;5.12;;;;;;;19.06;85.44;96859.97;1659022;86;21357;-83
2022/07/06 09:50:55;;;;;;;6.05;5.45;;;;;;;19.30;84.90;96858.20;1619135;86;21076;-88
2022/07/06 09:53:23;;;;;;;5.10;4.58;;;;;;;19.44;84.60;96856.19;1642974;86;21046;-86
2022/07/06 09:55:58;;;;;;;5.62;4.60;;;;;;;19.47;82.93;96861.00;1620218;87;21078;-84
2022/07/06 09:58:24;;;;;;;4.58;4.17;;;;;;;19.66;82.95;96868.34;1653176;86;21071;-84
2022/07/06 10:00:50;;;;;;;4.92;4.28;;;;;;;19.60;81.19;96873.20;1660226;85;21048;-84
2022/07/06 10:03:18;;;;;;;5.65;4.33;;;;;;;19.54;79.95;96880.20;1659182;85;21004;-83
2022/07/06 10:05:49;;;;;;;4.42;4.03;;;;;;;19.33;79.60;96880.66;1651801;86;21061;-84
2022/07/06 10:08:16;;;;;;;4.95;3.98;;;;;;;19.16;79.64;96877.86;1630286;87;21036;-84
2022/07/06 10:10:43;;;;;;;4.20;3.80;;;;;;;19.06;78.67;96886.31;1675191;85;21143;-84
2022/07/06 10:13:09;;;;;;;5.95;3.75;;;;;;;18.97;79.59;96886.83;1667501;85;21043;-84
2022/07/06 10:15:39;;;;;;;4.00;3.55;;;;;;;18.99;80.89;96888.20;1666834;85;21034;-83
2022/07/06 10:18:07;;;;;;;4.40;4.00;;;;;;;19.05;79.67;96886.02;1662133;85;20995;-84
2022/07/06 10:20:36;;;;;;;4.58;3.20;;;;;;;19.19;78.91;96886.11;1654143;87;20995;-84
2022/07/06 10:23:03;;;;;;;3.98;3.45;;;;;;;19.27;79.61;96886.84;1662975;85;21022;-84
2022/07/06 10:25:30;;;;;;;4.92;3.92;;;;;;;19.34;79.48;96890.17;1629605;87;21362;-87
2022/07/06 10:27:56;;;;;;;3.55;3.35;;;;;;;19.27;78.51;96883.69;1621752;87;21378;-86
2022/07/06 10:30:22;;;;;;;4.22;3.70;;;;;;;19.21;78.01;96881.96;1674769;83;21150;-83
2022/07/06 10:32:52;;;;;;;4.75;3.92;;;;;;;19.28;79.40;96892.39;1677028;85;21006;-83
2022/07/06 10:35:19;;;;;;;4.95;4.10;;;;;;;19.60;79.44;96891.66;1643986;85;21468;-84
2022/07/06 10:37:45;;;;;;;4.53;4.12;;;;;;;19.90;75.54;96898.19;1661357;84;20978;-86
2022/07/06 10:43:01;;;;;;;5.85;3.95;;;;;;;19.73;72.83;96901.49;1673907;83;20990;-83
2022/07/06 10:45:38;;;;;;;4.83;4.42;;;;;;;19.62;76.87;96896.98;1675854;83;21053;-84
2022/07/06 10:48:17;;;;;;;4.92;4.53;;;;;;;19.66;75.94;96898.13;1676260;83;20986;-83
2022/07/06 10:50:54;;;;;;;4.15;3.77;;;;;;;19.75;76.84;96902.06;1659627;85;21401;-84
2022/07/06 10:53:30;;;;;;;4.67;3.70;;;;;;;19.76;74.77;96906.82;1657345;85;20982;-86
2022/07/06 10:55:56;;;;;;;3.70;3.40;;;;;;;19.68;74.02;96910.57;1665373;85;20974;-87
2022/07/06 10:58:42;;;;;;;8.60;6.37;;;;;;;19.71;74.89;96905.39;1647485;83;21030;-87
2022/07/06 11:01:10;;;;;;;10.80;8.38;;;;;;;19.89;75.05;96901.86;1676932;84;20963;-87
2022/07/06 11:03:58;;;;;;;5.67;4.42;;;;;;;20.08;74.65;96904.67;1693541;84;21010;-86
2022/07/06 11:06:25;;;;;;;9.80;8.45;;;;;;;20.24;73.65;96907.15;1664170;84;21012;-84
2022/07/06 11:08:55;;;;;;;6.58;5.45;;;;;;;20.32;73.09;96902.83;1644614;85;20987;-84
2022/07/06 11:11:35;;;;;;;3.62;2.52;;;;;;;20.35;73.21;96904.52;1677117;84;21079;-84
2022/07/06 11:14:14;;;;;;;3.92;2.83;;;;;;;20.26;71.43;96915.63;1681141;83;21406;-84
2022/07/06 11:16:57;;;;;;;3.02;2.72;;;;;;;20.20;72.16;96920.00;1672213;83;21896;-85
2022/07/06 11:19:25;;;;;;;3.52;2.77;;;;;;;20.11;70.80;96918.72;1646570;86;21376;-84
2022/07/06 11:22:09;;;;;;;3.70;3.40;;;;;;;20.13;72.20;96916.66;1677054;84;21466;-84
2022/07/06 11:24:39;;;;;;;4.55;2.72;;;;;;;20.21;72.30;96919.48;1658631;85;21003;-84
2022/07/06 11:27:06;;;;;;;4.15;3.05;;;;;;;20.29;71.85;96913.84;1659192;84;21025;-84